sensor_id;sensor_type;location;lat;lon;timestamp;temperature;humidity
19586;DHT22;9939;49.246;9.106;2023-08-30T00:01:11;12.80;99.90
19586;DHT22;9939;49.246;9.106;2023-08-30T00:03:38;12.80;99.90
19586;DHT22;9939;49.246;9.106;2023-08-30T00:06:06;12.80;99.90
19586;DHT22;9939;49.246;9.106;2023-08-30T00:08:33;12.90;99.90
19586;DHT22;9939;49.246;9.106;2023-08-30T00:11:00;12.80;99.90
19586;DHT22;9939;49.246;9.106;2023-08-30T00:13:31;12.80;99.90
19586;DHT22;9939;49.246;9.106;2023-08-30T00:16:00;12.80;99.90
19586;DHT22;9939;49.246;9.106;2023-08-30T00:18:29;12.80;99.90
19586;DHT22;9939;49.246;9.106;2023-08-30T00:20:57;12.80;99.90
19586;DHT22;9939;49.246;9.106;2023-08-30T00:23:24;12.70;99.90
19586;DHT22;9939;49.246;9.106;2023-08-30T00:25:51;12.70;99.90
19586;DHT22;9939;49.246;9.106;2023-08-30T00:28:17;12.70;99.90
19586;DHT22;9939;49.246;9.106;2023-08-30T00:30:44;12.60;99.90
19586;DHT22;9939;49.246;9.106;2023-08-30T00:33:12;12.60;99.90
19586;DHT22;9939;49.246;9.106;2023-08-30T00:35:39;12.40;99.90
19586;DHT22;9939;49.246;9.106;2023-08-30T00:38:06;12.50;99.90
19586;DHT22;9939;49.246;9.106;2023-08-30T00:40:37;12.50;99.90
19586;DHT22;9939;49.246;9.106;2023-08-30T00:43:05;12.40;99.90
19586;DHT22;9939;49.246;9.106;2023-08-30T00:45:32;12.30;99.90
19586;DHT22;9939;49.246;9.106;2023-08-30T00:47:59;12.20;99.90
19586;DHT22;9939;49.246;9.106;2023-08-30T00:50:26;12.20;99.90
19586;DHT22;9939;49.246;9.106;2023-08-30T00:52:53;12.10;99.90
19586;DHT22;9939;49.246;9.106;2023-08-30T00:55:20;12.30;99.90
19586;DHT22;9939;49.246;9.106;2023-08-30T00:57:47;12.10;99.90
19586;DHT22;9939;49.246;9.106;2023-08-30T01:00:14;12.10;99.90
19586;DHT22;9939;49.246;9.106;2023-08-30T01:02:41;12.10;99.90
19586;DHT22;9939;49.246;9.106;2023-08-30T01:05:08;12.20;99.90
19586;DHT22;9939;49.246;9.106;2023-08-30T01:07:35;12.10;99.90
19586;DHT22;9939;49.246;9.106;2023-08-30T01:10:02;12.20;99.90
19586;DHT22;9939;49.246;9.106;2023-08-30T01:12:32;12.00;99.90
19586;DHT22;9939;49.246;9.106;2023-08-30T01:15:11;11.90;99.90
19586;DHT22;9939;49.246;9.106;2023-08-30T01:17:41;11.90;99.90
19586;DHT22;9939;49.246;9.106;2023-08-30T01:20:10;12.20;99.90
19586;DHT22;9939;49.246;9.106;2023-08-30T01:28:03;11.90;99.90
19586;DHT22;9939;49.246;9.106;2023-08-30T01:30:32;11.90;99.90
19586;DHT22;9939;49.246;9.106;2023-08-30T01:33:00;11.80;99.90
19586;DHT22;9939;49.246;9.106;2023-08-30T01:35:29;11.90;99.90
19586;DHT22;9939;49.246;9.106;2023-08-30T01:38:05;11.90;99.90
19586;DHT22;9939;49.246;9.106;2023-08-30T01:40:34;11.70;99.90
19586;DHT22;9939;49.246;9.106;2023-08-30T01:43:02;11.70;99.90
19586;DHT22;9939;49.246;9.106;2023-08-30T01:45:31;11.60;99.90
19586;DHT22;9939;49.246;9.106;2023-08-30T01:47:59;11.70;99.90
19586;DHT22;9939;49.246;9.106;2023-08-30T01:50:26;11.80;99.90
19586;DHT22;9939;49.246;9.106;2023-08-30T01:52:54;11.80;99.90
19586;DHT22;9939;49.246;9.106;2023-08-30T01:55:23;11.60;99.90
19586;DHT22;9939;49.246;9.106;2023-08-30T01:57:51;11.60;99.90
19586;DHT22;9939;49.246;9.106;2023-08-30T02:00:18;11.60;99.90
19586;DHT22;9939;49.246;9.106;2023-08-30T02:02:46;11.60;99.90
19586;DHT22;9939;49.246;9.106;2023-08-30T02:05:13;11.70;99.90
19586;DHT22;9939;49.246;9.106;2023-08-30T02:07:55;11.70;99.90
19586;DHT22;9939;49.246;9.106;2023-08-30T02:10:36;11.80;99.90
19586;DHT22;9939;49.246;9.106;2023-08-30T02:13:04;11.60;99.90
19586;DHT22;9939;49.246;9.106;2023-08-30T02:15:33;11.70;99.90
19586;DHT22;9939;49.246;9.106;2023-08-30T02:18:00;11.90;99.90
19586;DHT22;9939;49.246;9.106;2023-08-30T02:20:28;11.90;99.90
19586;DHT22;9939;49.246;9.106;2023-08-30T02:22:58;11.90;99.90
19586;DHT22;9939;49.246;9.106;2023-08-30T02:25:25;11.90;99.90
19586;DHT22;9939;49.246;9.106;2023-08-30T02:27:54;11.90;99.90
19586;DHT22;9939;49.246;9.106;2023-08-30T02:30:21;12.10;99.90
19586;DHT22;9939;49.246;9.106;2023-08-30T02:32:47;11.90;99.90
19586;DHT22;9939;49.246;9.106;2023-08-30T02:35:16;11.90;99.90
19586;DHT22;9939;49.246;9.106;2023-08-30T02:37:42;11.90;99.90
19586;DHT22;9939;49.246;9.106;2023-08-30T02:40:10;12.20;99.90
19586;DHT22;9939;49.246;9.106;2023-08-30T02:42:37;12.20;99.90
19586;DHT22;9939;49.246;9.106;2023-08-30T02:45:04;12.10;99.90
19586;DHT22;9939;49.246;9.106;2023-08-30T02:47:32;12.40;99.90
19586;DHT22;9939;49.246;9.106;2023-08-30T02:49:59;12.50;99.90
19586;DHT22;9939;49.246;9.106;2023-08-30T02:52:26;12.40;99.90
19586;DHT22;9939;49.246;9.106;2023-08-30T02:54:53;12.60;99.90
19586;DHT22;9939;49.246;9.106;2023-08-30T02:57:20;12.70;99.90
19586;DHT22;9939;49.246;9.106;2023-08-30T02:59:49;12.50;99.90
19586;DHT22;9939;49.246;9.106;2023-08-30T03:02:17;12.60;99.90
19586;DHT22;9939;49.246;9.106;2023-08-30T03:04:44;12.50;99.90
19586;DHT22;9939;49.246;9.106;2023-08-30T03:07:11;12.40;99.90
19586;DHT22;9939;49.246;9.106;2023-08-30T03:09:39;12.70;99.90
19586;DHT22;9939;49.246;9.106;2023-08-30T03:12:06;12.60;99.90
19586;DHT22;9939;49.246;9.106;2023-08-30T03:14:34;12.50;99.90
19586;DHT22;9939;49.246;9.106;2023-08-30T03:17:01;12.70;99.90
19586;DHT22;9939;49.246;9.106;2023-08-30T03:19:28;12.80;99.90
19586;DHT22;9939;49.246;9.106;2023-08-30T03:21:55;12.70;99.90
19586;DHT22;9939;49.246;9.106;2023-08-30T03:24:22;12.70;99.90
19586;DHT22;9939;49.246;9.106;2023-08-30T03:26:49;12.70;99.90
19586;DHT22;9939;49.246;9.106;2023-08-30T03:29:18;12.60;99.90
19586;DHT22;9939;49.246;9.106;2023-08-30T03:31:47;12.60;99.90
19586;DHT22;9939;49.246;9.106;2023-08-30T03:34:13;12.60;99.90
19586;DHT22;9939;49.246;9.106;2023-08-30T03:36:40;12.60;99.90
19586;DHT22;9939;49.246;9.106;2023-08-30T03:39:10;12.70;99.90
19586;DHT22;9939;49.246;9.106;2023-08-30T03:41:37;12.70;99.90
19586;DHT22;9939;49.246;9.106;2023-08-30T03:44:04;12.60;99.90
19586;DHT22;9939;49.246;9.106;2023-08-30T03:46:31;12.70;99.90
19586;DHT22;9939;49.246;9.106;2023-08-30T03:48:58;13.00;99.90
19586;DHT22;9939;49.246;9.106;2023-08-30T03:51:25;12.80;99.90
19586;DHT22;9939;49.246;9.106;2023-08-30T03:53:52;12.80;99.90
19586;DHT22;9939;49.246;9.106;2023-08-30T03:56:19;12.70;99.90
19586;DHT22;9939;49.246;9.106;2023-08-30T03:58:46;12.70;99.90
19586;DHT22;9939;49.246;9.106;2023-08-30T04:01:13;12.70;99.90
19586;DHT22;9939;49.246;9.106;2023-08-30T04:03:40;12.60;99.90
19586;DHT22;9939;49.246;9.106;2023-08-30T04:06:07;12.60;99.90
19586;DHT22;9939;49.246;9.106;2023-08-30T04:08:34;12.70;99.90
19586;DHT22;9939;49.246;9.106;2023-08-30T04:11:01;12.70;99.90
19586;DHT22;9939;49.246;9.106;2023-08-30T04:13:29;12.70;99.90
19586;DHT22;9939;49.246;9.106;2023-08-30T04:15:56;12.60;99.90
19586;DHT22;9939;49.246;9.106;2023-08-30T04:18:25;12.80;99.90
19586;DHT22;9939;49.246;9.106;2023-08-30T04:20:52;12.80;99.90
19586;DHT22;9939;49.246;9.106;2023-08-30T04:23:19;12.80;99.90
19586;DHT22;9939;49.246;9.106;2023-08-30T04:25:46;12.80;99.90
19586;DHT22;9939;49.246;9.106;2023-08-30T04:28:13;12.80;99.90
19586;DHT22;9939;49.246;9.106;2023-08-30T04:30:41;12.90;99.90
19586;DHT22;9939;49.246;9.106;2023-08-30T04:33:08;12.80;99.90
19586;DHT22;9939;49.246;9.106;2023-08-30T04:35:34;12.80;99.90
19586;DHT22;9939;49.246;9.106;2023-08-30T04:38:02;12.90;99.90
19586;DHT22;9939;49.246;9.106;2023-08-30T04:40:30;12.90;99.90
19586;DHT22;9939;49.246;9.106;2023-08-30T04:42:58;13.00;99.90
19586;DHT22;9939;49.246;9.106;2023-08-30T04:45:25;12.80;99.90
19586;DHT22;9939;49.246;9.106;2023-08-30T04:47:52;12.80;99.90
19586;DHT22;9939;49.246;9.106;2023-08-30T04:50:19;12.80;99.90
19586;DHT22;9939;49.246;9.106;2023-08-30T04:52:47;12.80;99.90
19586;DHT22;9939;49.246;9.106;2023-08-30T04:55:14;12.90;99.90
19586;DHT22;9939;49.246;9.106;2023-08-30T04:57:41;12.90;99.90
19586;DHT22;9939;49.246;9.106;2023-08-30T05:00:13;13.00;99.90
19586;DHT22;9939;49.246;9.106;2023-08-30T05:02:40;13.20;99.90
19586;DHT22;9939;49.246;9.106;2023-08-30T05:05:10;13.20;99.90
19586;DHT22;9939;49.246;9.106;2023-08-30T05:07:37;13.20;99.90
19586;DHT22;9939;49.246;9.106;2023-08-30T05:10:05;13.20;99.90
19586;DHT22;9939;49.246;9.106;2023-08-30T05:12:33;13.20;99.90
19586;DHT22;9939;49.246;9.106;2023-08-30T05:15:01;13.20;99.90
19586;DHT22;9939;49.246;9.106;2023-08-30T05:17:28;13.30;99.90
19586;DHT22;9939;49.246;9.106;2023-08-30T05:19:56;13.30;99.90
19586;DHT22;9939;49.246;9.106;2023-08-30T05:22:23;13.30;99.90
19586;DHT22;9939;49.246;9.106;2023-08-30T05:24:50;13.30;99.90
19586;DHT22;9939;49.246;9.106;2023-08-30T05:27:17;13.30;99.90
19586;DHT22;9939;49.246;9.106;2023-08-30T05:29:44;13.50;99.90
19586;DHT22;9939;49.246;9.106;2023-08-30T05:32:11;13.50;99.90
19586;DHT22;9939;49.246;9.106;2023-08-30T05:34:59;13.50;99.90
19586;DHT22;9939;49.246;9.106;2023-08-30T05:37:58;13.60;99.90
19586;DHT22;9939;49.246;9.106;2023-08-30T05:40:39;13.80;99.90
19586;DHT22;9939;49.246;9.106;2023-08-30T05:43:09;13.90;99.90
19586;DHT22;9939;49.246;9.106;2023-08-30T05:45:36;14.00;99.90
19586;DHT22;9939;49.246;9.106;2023-08-30T05:48:03;13.90;99.90
19586;DHT22;9939;49.246;9.106;2023-08-30T05:50:30;14.00;99.90
19586;DHT22;9939;49.246;9.106;2023-08-30T05:52:57;14.10;99.90
19586;DHT22;9939;49.246;9.106;2023-08-30T05:55:24;14.20;99.90
19586;DHT22;9939;49.246;9.106;2023-08-30T05:57:52;14.30;99.90
19586;DHT22;9939;49.246;9.106;2023-08-30T06:00:19;14.50;99.90
19586;DHT22;9939;49.246;9.106;2023-08-30T06:02:46;14.60;99.90
19586;DHT22;9939;49.246;9.106;2023-08-30T06:05:13;14.60;99.90
19586;DHT22;9939;49.246;9.106;2023-08-30T06:07:40;14.50;99.90
19586;DHT22;9939;49.246;9.106;2023-08-30T06:10:07;14.80;99.90
19586;DHT22;9939;49.246;9.106;2023-08-30T06:12:34;15.10;99.90
19586;DHT22;9939;49.246;9.106;2023-08-30T06:15:01;15.20;99.90
19586;DHT22;9939;49.246;9.106;2023-08-30T06:17:28;15.50;99.90
19586;DHT22;9939;49.246;9.106;2023-08-30T06:19:55;15.50;99.90
19586;DHT22;9939;49.246;9.106;2023-08-30T06:22:22;15.60;99.90
19586;DHT22;9939;49.246;9.106;2023-08-30T06:24:48;15.80;99.90
19586;DHT22;9939;49.246;9.106;2023-08-30T06:27:15;15.70;99.90
19586;DHT22;9939;49.246;9.106;2023-08-30T06:29:42;15.70;99.90
19586;DHT22;9939;49.246;9.106;2023-08-30T06:32:09;15.80;99.90
19586;DHT22;9939;49.246;9.106;2023-08-30T06:34:36;15.80;99.90
19586;DHT22;9939;49.246;9.106;2023-08-30T06:37:03;16.00;99.90
19586;DHT22;9939;49.246;9.106;2023-08-30T06:39:33;15.80;99.90
19586;DHT22;9939;49.246;9.106;2023-08-30T06:42:01;15.90;99.90
19586;DHT22;9939;49.246;9.106;2023-08-30T06:44:28;16.00;99.90
19586;DHT22;9939;49.246;9.106;2023-08-30T06:46:56;16.10;99.90
19586;DHT22;9939;49.246;9.106;2023-08-30T06:49:28;16.20;99.90
19586;DHT22;9939;49.246;9.106;2023-08-30T06:51:54;16.30;99.90
19586;DHT22;9939;49.246;9.106;2023-08-30T06:54:21;16.40;99.90
19586;DHT22;9939;49.246;9.106;2023-08-30T06:57:00;16.50;99.90
19586;DHT22;9939;49.246;9.106;2023-08-30T06:59:27;16.50;99.90
19586;DHT22;9939;49.246;9.106;2023-08-30T07:01:54;16.70;99.90
19586;DHT22;9939;49.246;9.106;2023-08-30T07:04:21;17.00;99.90
19586;DHT22;9939;49.246;9.106;2023-08-30T07:06:48;17.00;99.90
19586;DHT22;9939;49.246;9.106;2023-08-30T07:09:16;17.20;99.90
19586;DHT22;9939;49.246;9.106;2023-08-30T07:11:43;17.00;99.90
19586;DHT22;9939;49.246;9.106;2023-08-30T07:14:13;17.00;99.90
19586;DHT22;9939;49.246;9.106;2023-08-30T07:16:41;17.20;99.90
19586;DHT22;9939;49.246;9.106;2023-08-30T07:19:07;17.10;99.90
19586;DHT22;9939;49.246;9.106;2023-08-30T07:21:36;17.20;99.90
19586;DHT22;9939;49.246;9.106;2023-08-30T07:24:08;17.20;99.90
19586;DHT22;9939;49.246;9.106;2023-08-30T07:26:35;17.20;99.90
19586;DHT22;9939;49.246;9.106;2023-08-30T07:29:02;17.00;99.90
19586;DHT22;9939;49.246;9.106;2023-08-30T07:31:31;17.30;99.90
19586;DHT22;9939;49.246;9.106;2023-08-30T07:33:59;17.60;99.90
19586;DHT22;9939;49.246;9.106;2023-08-30T07:36:26;18.00;99.90
19586;DHT22;9939;49.246;9.106;2023-08-30T07:39:07;18.00;99.90
19586;DHT22;9939;49.246;9.106;2023-08-30T07:41:34;18.20;99.90
19586;DHT22;9939;49.246;9.106;2023-08-30T07:44:01;18.10;99.90
19586;DHT22;9939;49.246;9.106;2023-08-30T07:46:28;18.30;99.90
19586;DHT22;9939;49.246;9.106;2023-08-30T07:48:55;18.30;99.90
19586;DHT22;9939;49.246;9.106;2023-08-30T07:51:22;18.40;99.90
19586;DHT22;9939;49.246;9.106;2023-08-30T07:53:49;18.50;99.90
19586;DHT22;9939;49.246;9.106;2023-08-30T07:56:16;18.80;99.90
19586;DHT22;9939;49.246;9.106;2023-08-30T07:58:43;18.90;99.90
19586;DHT22;9939;49.246;9.106;2023-08-30T08:01:10;19.10;99.90
19586;DHT22;9939;49.246;9.106;2023-08-30T08:03:37;18.80;99.90
19586;DHT22;9939;49.246;9.106;2023-08-30T08:06:11;18.80;99.90
19586;DHT22;9939;49.246;9.106;2023-08-30T08:08:38;18.90;99.90
19586;DHT22;9939;49.246;9.106;2023-08-30T08:11:05;19.40;99.90
19586;DHT22;9939;49.246;9.106;2023-08-30T08:13:32;19.60;99.90
19586;DHT22;9939;49.246;9.106;2023-08-30T08:15:59;19.60;99.90
19586;DHT22;9939;49.246;9.106;2023-08-30T08:18:26;19.60;99.90
19586;DHT22;9939;49.246;9.106;2023-08-30T08:20:53;19.90;99.90
19586;DHT22;9939;49.246;9.106;2023-08-30T08:23:20;19.90;99.90
19586;DHT22;9939;49.246;9.106;2023-08-30T08:25:47;20.10;99.90
19586;DHT22;9939;49.246;9.106;2023-08-30T08:28:14;20.00;99.90
19586;DHT22;9939;49.246;9.106;2023-08-30T08:30:42;20.00;99.90
19586;DHT22;9939;49.246;9.106;2023-08-30T08:33:11;19.80;99.90
19586;DHT22;9939;49.246;9.106;2023-08-30T08:35:38;19.70;99.90
19586;DHT22;9939;49.246;9.106;2023-08-30T08:38:06;19.90;99.90
19586;DHT22;9939;49.246;9.106;2023-08-30T08:40:36;20.30;99.90
19586;DHT22;9939;49.246;9.106;2023-08-30T08:43:05;20.90;99.90
19586;DHT22;9939;49.246;9.106;2023-08-30T08:45:35;21.70;99.90
19586;DHT22;9939;49.246;9.106;2023-08-30T08:48:03;21.90;99.90
19586;DHT22;9939;49.246;9.106;2023-08-30T08:50:31;22.00;99.90
19586;DHT22;9939;49.246;9.106;2023-08-30T08:52:59;22.50;99.90
19586;DHT22;9939;49.246;9.106;2023-08-30T08:55:26;22.60;99.90
19586;DHT22;9939;49.246;9.106;2023-08-30T08:57:53;22.50;99.90
19586;DHT22;9939;49.246;9.106;2023-08-30T09:00:20;22.20;99.90
19586;DHT22;9939;49.246;9.106;2023-08-30T09:02:47;22.70;99.90
19586;DHT22;9939;49.246;9.106;2023-08-30T09:05:14;22.80;99.90
19586;DHT22;9939;49.246;9.106;2023-08-30T09:07:41;22.20;99.90
19586;DHT22;9939;49.246;9.106;2023-08-30T09:10:09;21.60;99.90
19586;DHT22;9939;49.246;9.106;2023-08-30T09:12:37;21.00;99.90
19586;DHT22;9939;49.246;9.106;2023-08-30T09:15:04;20.80;99.90
19586;DHT22;9939;49.246;9.106;2023-08-30T09:17:37;20.70;99.90
19586;DHT22;9939;49.246;9.106;2023-08-30T09:20:13;20.70;99.90
19586;DHT22;9939;49.246;9.106;2023-08-30T09:22:41;21.00;99.90
19586;DHT22;9939;49.246;9.106;2023-08-30T09:25:09;21.10;99.90
19586;DHT22;9939;49.246;9.106;2023-08-30T09:27:36;21.10;99.90
19586;DHT22;9939;49.246;9.106;2023-08-30T09:30:05;21.30;99.90
19586;DHT22;9939;49.246;9.106;2023-08-30T09:32:38;22.60;99.90
19586;DHT22;9939;49.246;9.106;2023-08-30T09:35:05;23.30;99.90
19586;DHT22;9939;49.246;9.106;2023-08-30T09:37:32;23.60;99.90
19586;DHT22;9939;49.246;9.106;2023-08-30T09:39:59;22.80;99.90
19586;DHT22;9939;49.246;9.106;2023-08-30T09:42:26;22.40;99.90
19586;DHT22;9939;49.246;9.106;2023-08-30T09:44:53;21.90;99.90
19586;DHT22;9939;49.246;9.106;2023-08-30T09:47:19;21.60;99.90
19586;DHT22;9939;49.246;9.106;2023-08-30T09:49:48;22.20;99.90
19586;DHT22;9939;49.246;9.106;2023-08-30T09:52:16;22.70;99.90
19586;DHT22;9939;49.246;9.106;2023-08-30T09:54:43;23.10;99.90
19586;DHT22;9939;49.246;9.106;2023-08-30T09:57:10;22.90;99.90
19586;DHT22;9939;49.246;9.106;2023-08-30T09:59:38;23.20;99.90
19586;DHT22;9939;49.246;9.106;2023-08-30T10:02:05;23.30;99.90
19586;DHT22;9939;49.246;9.106;2023-08-30T10:04:34;24.00;99.90
19586;DHT22;9939;49.246;9.106;2023-08-30T10:07:03;24.80;99.90
19586;DHT22;9939;49.246;9.106;2023-08-30T10:09:31;24.90;99.90
19586;DHT22;9939;49.246;9.106;2023-08-30T10:11:59;24.10;99.90
19586;DHT22;9939;49.246;9.106;2023-08-30T10:14:28;24.00;99.90
19586;DHT22;9939;49.246;9.106;2023-08-30T10:17:00;23.80;99.90
19586;DHT22;9939;49.246;9.106;2023-08-30T10:19:29;23.70;99.90
19586;DHT22;9939;49.246;9.106;2023-08-30T10:24:26;23.20;99.90
19586;DHT22;9939;49.246;9.106;2023-08-30T10:27:01;23.30;99.90
19586;DHT22;9939;49.246;9.106;2023-08-30T10:29:31;23.30;99.90
19586;DHT22;9939;49.246;9.106;2023-08-30T10:32:03;22.90;99.90
19586;DHT22;9939;49.246;9.106;2023-08-30T10:34:34;22.40;99.90
19586;DHT22;9939;49.246;9.106;2023-08-30T10:37:02;22.30;99.90
19586;DHT22;9939;49.246;9.106;2023-08-30T10:39:36;23.90;99.90
19586;DHT22;9939;49.246;9.106;2023-08-30T10:42:08;25.50;99.90
19586;DHT22;9939;49.246;9.106;2023-08-30T10:44:46;25.70;99.90
19586;DHT22;9939;49.246;9.106;2023-08-30T10:47:27;25.30;99.90
19586;DHT22;9939;49.246;9.106;2023-08-30T10:49:58;26.40;99.90
19586;DHT22;9939;49.246;9.106;2023-08-30T10:52:26;27.10;99.90
19586;DHT22;9939;49.246;9.106;2023-08-30T10:54:53;27.80;99.90
19586;DHT22;9939;49.246;9.106;2023-08-30T10:57:30;28.60;99.90
19586;DHT22;9939;49.246;9.106;2023-08-30T11:00:31;27.60;99.90
19586;DHT22;9939;49.246;9.106;2023-08-30T11:02:51;26.10;99.90
19586;DHT22;9939;49.246;9.106;2023-08-30T11:05:20;25.80;99.90
19586;DHT22;9939;49.246;9.106;2023-08-30T11:07:47;26.30;99.90
19586;DHT22;9939;49.246;9.106;2023-08-30T11:10:18;26.20;99.90
19586;DHT22;9939;49.246;9.106;2023-08-30T11:12:45;26.40;99.90
19586;DHT22;9939;49.246;9.106;2023-08-30T11:15:13;25.80;99.90
19586;DHT22;9939;49.246;9.106;2023-08-30T11:17:43;25.80;99.90
19586;DHT22;9939;49.246;9.106;2023-08-30T11:20:11;26.90;99.90
19586;DHT22;9939;49.246;9.106;2023-08-30T11:22:42;26.30;99.90
19586;DHT22;9939;49.246;9.106;2023-08-30T11:25:10;26.30;99.90
19586;DHT22;9939;49.246;9.106;2023-08-30T11:27:41;26.40;99.90
19586;DHT22;9939;49.246;9.106;2023-08-30T11:30:08;26.70;99.90
19586;DHT22;9939;49.246;9.106;2023-08-30T11:32:36;26.50;99.90
19586;DHT22;9939;49.246;9.106;2023-08-30T11:35:03;26.10;99.90
19586;DHT22;9939;49.246;9.106;2023-08-30T11:37:30;25.40;99.90
19586;DHT22;9939;49.246;9.106;2023-08-30T11:39:57;25.60;99.90
19586;DHT22;9939;49.246;9.106;2023-08-30T11:42:27;26.80;99.90
19586;DHT22;9939;49.246;9.106;2023-08-30T11:44:54;28.10;99.90
19586;DHT22;9939;49.246;9.106;2023-08-30T11:47:24;28.60;99.90
19586;DHT22;9939;49.246;9.106;2023-08-30T11:49:52;29.10;99.90
19586;DHT22;9939;49.246;9.106;2023-08-30T11:52:19;28.40;99.90
19586;DHT22;9939;49.246;9.106;2023-08-30T11:54:47;28.10;99.90
19586;DHT22;9939;49.246;9.106;2023-08-30T11:57:14;28.60;99.90
19586;DHT22;9939;49.246;9.106;2023-08-30T11:59:41;28.00;99.90
19586;DHT22;9939;49.246;9.106;2023-08-30T12:02:11;26.20;99.90
19586;DHT22;9939;49.246;9.106;2023-08-30T12:04:39;25.10;99.90
19586;DHT22;9939;49.246;9.106;2023-08-30T12:07:07;23.90;99.90
19586;DHT22;9939;49.246;9.106;2023-08-30T12:09:34;23.40;99.90
19586;DHT22;9939;49.246;9.106;2023-08-30T12:12:10;23.40;99.90
19586;DHT22;9939;49.246;9.106;2023-08-30T12:14:37;23.60;99.90
19586;DHT22;9939;49.246;9.106;2023-08-30T12:17:05;24.50;99.90
19586;DHT22;9939;49.246;9.106;2023-08-30T12:19:32;26.00;99.90
19586;DHT22;9939;49.246;9.106;2023-08-30T12:22:05;28.30;99.90
19586;DHT22;9939;49.246;9.106;2023-08-30T12:24:45;29.80;99.90
19586;DHT22;9939;49.246;9.106;2023-08-30T12:27:12;31.00;99.90
19586;DHT22;9939;49.246;9.106;2023-08-30T12:29:40;31.60;98.60
19586;DHT22;9939;49.246;9.106;2023-08-30T12:32:07;32.60;97.40
19586;DHT22;9939;49.246;9.106;2023-08-30T12:34:34;33.30;95.60
19586;DHT22;9939;49.246;9.106;2023-08-30T12:37:02;33.20;95.10
19586;DHT22;9939;49.246;9.106;2023-08-30T12:39:31;32.10;94.60
19586;DHT22;9939;49.246;9.106;2023-08-30T12:41:58;32.10;94.70
19586;DHT22;9939;49.246;9.106;2023-08-30T12:44:25;32.60;93.90
19586;DHT22;9939;49.246;9.106;2023-08-30T12:46:52;33.30;92.30
19586;DHT22;9939;49.246;9.106;2023-08-30T12:49:19;33.40;92.10
19586;DHT22;9939;49.246;9.106;2023-08-30T12:51:46;34.10;91.40
19586;DHT22;9939;49.246;9.106;2023-08-30T12:54:13;34.00;91.10
19586;DHT22;9939;49.246;9.106;2023-08-30T12:56:39;33.60;91.20
19586;DHT22;9939;49.246;9.106;2023-08-30T12:59:06;32.90;91.40
19586;DHT22;9939;49.246;9.106;2023-08-30T13:01:33;31.30;92.20
19586;DHT22;9939;49.246;9.106;2023-08-30T13:04:00;28.90;94.20
19586;DHT22;9939;49.246;9.106;2023-08-30T13:06:27;27.80;96.80
19586;DHT22;9939;49.246;9.106;2023-08-30T13:08:54;27.30;97.80
19586;DHT22;9939;49.246;9.106;2023-08-30T13:11:21;26.60;98.00
19586;DHT22;9939;49.246;9.106;2023-08-30T13:13:48;26.00;99.30
19586;DHT22;9939;49.246;9.106;2023-08-30T13:16:15;26.10;99.80
19586;DHT22;9939;49.246;9.106;2023-08-30T13:18:41;26.90;99.50
19586;DHT22;9939;49.246;9.106;2023-08-30T13:21:08;27.40;98.50
19586;DHT22;9939;49.246;9.106;2023-08-30T13:23:35;27.10;98.60
19586;DHT22;9939;49.246;9.106;2023-08-30T13:26:02;26.00;99.70
19586;DHT22;9939;49.246;9.106;2023-08-30T13:28:29;26.10;99.90
19586;DHT22;9939;49.246;9.106;2023-08-30T13:30:56;25.60;99.70
19586;DHT22;9939;49.246;9.106;2023-08-30T13:33:24;25.10;99.90
19586;DHT22;9939;49.246;9.106;2023-08-30T13:35:51;24.90;99.90
19586;DHT22;9939;49.246;9.106;2023-08-30T13:38:18;24.70;99.90
19586;DHT22;9939;49.246;9.106;2023-08-30T13:40:46;24.30;99.90
19586;DHT22;9939;49.246;9.106;2023-08-30T13:43:12;24.50;99.90
19586;DHT22;9939;49.246;9.106;2023-08-30T13:45:39;24.50;99.90
19586;DHT22;9939;49.246;9.106;2023-08-30T13:48:06;25.10;99.90
19586;DHT22;9939;49.246;9.106;2023-08-30T13:50:34;25.20;99.90
19586;DHT22;9939;49.246;9.106;2023-08-30T13:53:07;25.20;99.90
19586;DHT22;9939;49.246;9.106;2023-08-30T13:55:34;25.60;99.90
19586;DHT22;9939;49.246;9.106;2023-08-30T13:58:01;26.40;99.90
19586;DHT22;9939;49.246;9.106;2023-08-30T14:00:28;27.70;99.90
19586;DHT22;9939;49.246;9.106;2023-08-30T14:02:55;30.50;96.20
19586;DHT22;9939;49.246;9.106;2023-08-30T14:05:22;31.60;93.80
19586;DHT22;9939;49.246;9.106;2023-08-30T14:07:49;31.90;92.80
19586;DHT22;9939;49.246;9.106;2023-08-30T14:10:15;31.60;92.80
19586;DHT22;9939;49.246;9.106;2023-08-30T14:12:47;31.80;92.10
19586;DHT22;9939;49.246;9.106;2023-08-30T14:15:13;33.20;90.80
19586;DHT22;9939;49.246;9.106;2023-08-30T14:17:41;34.10;89.90
19586;DHT22;9939;49.246;9.106;2023-08-30T14:20:08;34.60;88.40
19586;DHT22;9939;49.246;9.106;2023-08-30T14:22:36;34.30;88.70
19586;DHT22;9939;49.246;9.106;2023-08-30T14:25:03;33.90;88.20
19586;DHT22;9939;49.246;9.106;2023-08-30T14:27:38;33.00;90.20
19586;DHT22;9939;49.246;9.106;2023-08-30T14:30:06;31.90;89.40
19586;DHT22;9939;49.246;9.106;2023-08-30T14:32:33;30.00;91.70
19586;DHT22;9939;49.246;9.106;2023-08-30T14:34:59;30.90;91.50
19586;DHT22;9939;49.246;9.106;2023-08-30T14:37:26;31.50;90.70
19586;DHT22;9939;49.246;9.106;2023-08-30T14:39:53;31.20;90.90
19586;DHT22;9939;49.246;9.106;2023-08-30T14:42:21;31.30;91.00
19586;DHT22;9939;49.246;9.106;2023-08-30T14:44:51;31.60;90.90
19586;DHT22;9939;49.246;9.106;2023-08-30T14:47:18;31.60;90.40
19586;DHT22;9939;49.246;9.106;2023-08-30T14:49:45;31.90;90.40
19586;DHT22;9939;49.246;9.106;2023-08-30T14:52:15;31.30;91.20
19586;DHT22;9939;49.246;9.106;2023-08-30T14:54:42;31.70;90.70
19586;DHT22;9939;49.246;9.106;2023-08-30T14:57:09;32.50;90.20
19586;DHT22;9939;49.246;9.106;2023-08-30T14:59:36;32.70;90.10
19586;DHT22;9939;49.246;9.106;2023-08-30T15:02:03;31.60;90.50
19586;DHT22;9939;49.246;9.106;2023-08-30T15:04:30;32.50;88.70
19586;DHT22;9939;49.246;9.106;2023-08-30T15:06:57;32.90;87.80
19586;DHT22;9939;49.246;9.106;2023-08-30T15:09:24;32.60;87.80
19586;DHT22;9939;49.246;9.106;2023-08-30T15:11:51;31.90;88.10
19586;DHT22;9939;49.246;9.106;2023-08-30T15:14:18;32.60;88.00
19586;DHT22;9939;49.246;9.106;2023-08-30T15:16:44;31.20;88.90
19586;DHT22;9939;49.246;9.106;2023-08-30T15:19:11;30.60;90.70
19586;DHT22;9939;49.246;9.106;2023-08-30T15:21:38;32.10;89.10
19586;DHT22;9939;49.246;9.106;2023-08-30T15:24:10;32.50;89.10
19586;DHT22;9939;49.246;9.106;2023-08-30T15:26:38;30.70;88.30
19586;DHT22;9939;49.246;9.106;2023-08-30T15:29:05;30.60;89.00
19586;DHT22;9939;49.246;9.106;2023-08-30T15:31:33;30.40;90.20
19586;DHT22;9939;49.246;9.106;2023-08-30T15:34:00;30.50;90.20
19586;DHT22;9939;49.246;9.106;2023-08-30T15:36:27;30.60;89.60
19586;DHT22;9939;49.246;9.106;2023-08-30T15:38:54;31.10;88.60
19586;DHT22;9939;49.246;9.106;2023-08-30T15:41:21;30.10;90.10
19586;DHT22;9939;49.246;9.106;2023-08-30T15:43:48;28.80;91.00
19586;DHT22;9939;49.246;9.106;2023-08-30T15:46:15;27.30;93.00
19586;DHT22;9939;49.246;9.106;2023-08-30T15:48:42;26.90;93.70
19586;DHT22;9939;49.246;9.106;2023-08-30T15:51:09;27.90;93.00
19586;DHT22;9939;49.246;9.106;2023-08-30T15:53:50;29.00;92.10
19586;DHT22;9939;49.246;9.106;2023-08-30T15:56:17;29.50;92.20
19586;DHT22;9939;49.246;9.106;2023-08-30T15:58:45;29.80;91.90